Time;durP1;ratioP1;P1;durP2;ratioP2;P2;SDS_P1;SDS_P2;PMS_P1;PMS_P2;Temp;Humidity;BMP_temperature;BMP_pressure;BME280_temperature;BME280_humidity;BME280_pressure;Samples;Min_cycle;Max_cycle;Signal;HPM_P1;HPM_P2
2023/06/27 00:01:47;;;;;;;3.23;2.90;;;;;;;;;;5103069;28;20197;-84
2023/06/27 00:04:14;;;;;;;5.30;2.80;;;;;;;;;;5095774;28;20198;-85
2023/06/27 00:06:42;;;;;;;6.43;2.63;;;;;;;;;;5094950;28;20195;-83
2023/06/27 00:09:10;;;;;;;3.80;2.53;;;;;;;;;;5097737;28;20237;-84
2023/06/27 00:11:37;;;;;;;2.90;2.33;;;;;;;;;;5101554;28;20231;-84
2023/06/27 00:14:08;;;;;;;5.23;2.40;;;;;;;;;;5096515;28;20223;-84
2023/06/27 00:16:35;;;;;;;4.90;3.03;;;;;;;;;;5101054;28;20208;-83
2023/06/27 00:19:04;;;;;;;4.37;2.67;;;;;;;;;;5074115;28;20200;-84
2023/06/27 00:21:31;;;;;;;3.23;2.93;;;;;;;;;;5104579;28;20278;-84
2023/06/27 00:23:59;;;;;;;4.33;3.10;;;;;;;;;;5106070;28;20694;-84
2023/06/27 00:26:27;;;;;;;5.17;2.80;;;;;;;;;;5074009;28;20215;-84
2023/06/27 00:28:54;;;;;;;4.27;2.80;;;;;;;;;;5098512;28;20261;-84
2023/06/27 00:31:22;;;;;;;2.80;2.47;;;;;;;;;;5065162;28;20208;-84
2023/06/27 00:33:49;;;;;;;7.07;3.27;;;;;;;;;;5070337;28;20238;-84
2023/06/27 00:36:16;;;;;;;4.43;2.77;;;;;;;;;;5105454;28;20231;-84
2023/06/27 00:38:43;;;;;;;7.47;3.10;;;;;;;;;;5073714;28;20693;-84
2023/06/27 00:41:10;;;;;;;5.40;3.13;;;;;;;;;;5074080;28;20204;-84
2023/06/27 00:43:38;;;;;;;14.20;3.40;;;;;;;;;;5076882;28;20682;-84
2023/06/27 00:46:07;;;;;;;4.13;3.40;;;;;;;;;;5111880;28;20196;-84
2023/06/27 00:48:36;;;;;;;5.63;2.83;;;;;;;;;;5111942;28;20199;-84
2023/06/27 00:51:03;;;;;;;6.73;3.17;;;;;;;;;;5109786;28;20211;-84
2023/06/27 00:53:30;;;;;;;5.47;3.33;;;;;;;;;;5084776;28;20307;-84
2023/06/27 00:55:58;;;;;;;6.23;3.70;;;;;;;;;;5104683;28;20629;-84
2023/06/27 00:58:25;;;;;;;4.03;3.23;;;;;;;;;;5082418;28;20242;-84
2023/06/27 01:00:52;;;;;;;7.37;3.10;;;;;;;;;;5072965;28;20298;-84
2023/06/27 01:03:21;;;;;;;3.67;3.37;;;;;;;;;;5091167;28;20200;-83
2023/06/27 01:05:50;;;;;;;4.97;2.63;;;;;;;;;;5107276;28;20657;-84
2023/06/27 01:08:23;;;;;;;3.07;2.77;;;;;;;;;;5101347;28;20210;-83
2023/06/27 01:10:54;;;;;;;9.40;2.87;;;;;;;;;;5108786;28;20195;-83
2023/06/27 01:13:24;;;;;;;5.57;3.07;;;;;;;;;;5099453;28;20234;-83
2023/06/27 01:15:51;;;;;;;4.47;2.73;;;;;;;;;;5091192;28;20675;-83
2023/06/27 01:18:20;;;;;;;5.47;2.73;;;;;;;;;;5085530;28;20211;-84
2023/06/27 01:20:47;;;;;;;3.30;3.00;;;;;;;;;;5103633;28;20204;-84
2023/06/27 01:23:19;;;;;;;3.57;2.80;;;;;;;;;;5073244;28;20713;-83
2023/06/27 01:25:48;;;;;;;3.27;2.97;;;;;;;;;;5097868;28;20575;-84
2023/06/27 01:28:16;;;;;;;9.03;3.13;;;;;;;;;;5110289;28;20211;-83
2023/06/27 01:30:43;;;;;;;6.73;3.30;;;;;;;;;;5097984;28;20234;-84
2023/06/27 01:33:16;;;;;;;7.57;3.70;;;;;;;;;;5061612;28;20219;-83
2023/06/27 01:35:48;;;;;;;5.50;3.50;;;;;;;;;;5081590;28;20318;-83
2023/06/27 01:38:19;;;;;;;8.93;3.80;;;;;;;;;;5094913;28;20227;-83
2023/06/27 01:40:50;;;;;;;5.40;3.37;;;;;;;;;;5083257;28;20203;-83
2023/06/27 01:43:17;;;;;;;7.30;3.60;;;;;;;;;;5110645;28;20199;-83
2023/06/27 01:45:45;;;;;;;4.10;3.70;;;;;;;;;;5110895;28;20666;-83
2023/06/27 01:48:12;;;;;;;5.23;3.43;;;;;;;;;;5057530;28;20286;-83
2023/06/27 01:50:40;;;;;;;3.27;2.97;;;;;;;;;;5072860;28;20261;-83
2023/06/27 01:53:07;;;;;;;5.00;3.40;;;;;;;;;;5103987;28;20220;-83
2023/06/27 01:55:34;;;;;;;4.37;3.17;;;;;;;;;;5072797;28;20204;-83
2023/06/27 01:58:02;;;;;;;7.03;2.67;;;;;;;;;;5092042;28;20198;-83
2023/06/27 02:00:29;;;;;;;5.03;3.43;;;;;;;;;;5097820;28;20210;-83
2023/06/27 02:02:56;;;;;;;3.73;3.30;;;;;;;;;;5103950;28;20707;-83
2023/06/27 02:05:23;;;;;;;5.33;3.87;;;;;;;;;;5072614;28;20232;-83
2023/06/27 02:07:50;;;;;;;5.13;3.43;;;;;;;;;;5090738;28;20204;-82
2023/06/27 02:10:19;;;;;;;3.67;3.03;;;;;;;;;;5089922;28;20196;-82
2023/06/27 02:12:45;;;;;;;10.40;3.77;;;;;;;;;;5080106;28;20231;-83
2023/06/27 02:15:14;;;;;;;3.93;2.77;;;;;;;;;;5096793;28;20208;-83
2023/06/27 02:17:41;;;;;;;6.37;3.60;;;;;;;;;;5110649;28;20206;-83
2023/06/27 02:20:09;;;;;;;3.10;2.80;;;;;;;;;;5109450;28;20578;-83
2023/06/27 02:22:36;;;;;;;8.27;4.07;;;;;;;;;;5098956;28;20206;-83
2023/06/27 02:25:03;;;;;;;8.73;3.43;;;;;;;;;;5096134;28;20204;-82
2023/06/27 02:27:30;;;;;;;4.97;2.60;;;;;;;;;;5072609;28;20698;-82
2023/06/27 02:29:57;;;;;;;5.63;3.53;;;;;;;;;;5084804;28;20216;-82
2023/06/27 02:32:26;;;;;;;6.03;3.50;;;;;;;;;;5095778;28;20223;-83
2023/06/27 02:34:52;;;;;;;5.57;3.03;;;;;;;;;;5100275;28;20589;-82
2023/06/27 02:37:19;;;;;;;3.97;2.93;;;;;;;;;;5105722;28;20231;-82
2023/06/27 02:39:46;;;;;;;3.37;3.07;;;;;;;;;;5093720;28;20239;-82
2023/06/27 02:42:13;;;;;;;3.83;3.40;;;;;;;;;;5085124;28;20563;-83
2023/06/27 02:44:40;;;;;;;6.57;3.33;;;;;;;;;;5114138;28;20227;-83
2023/06/27 02:47:07;;;;;;;4.87;4.37;;;;;;;;;;5069733;28;20208;-82
2023/06/27 02:49:35;;;;;;;4.57;3.37;;;;;;;;;;5109978;28;20204;-82
2023/06/27 02:52:02;;;;;;;5.83;3.43;;;;;;;;;;5113660;28;20203;-82
2023/06/27 02:54:29;;;;;;;5.70;3.23;;;;;;;;;;5114119;28;20261;-81
2023/06/27 02:56:56;;;;;;;5.27;3.30;;;;;;;;;;5113715;28;20211;-82
2023/06/27 02:59:23;;;;;;;3.77;3.13;;;;;;;;;;5082165;28;20199;-82
2023/06/27 03:01:50;;;;;;;4.83;3.50;;;;;;;;;;5113256;28;20207;-81
2023/06/27 03:04:21;;;;;;;5.53;3.37;;;;;;;;;;5095528;28;20204;-82
2023/06/27 03:06:49;;;;;;;5.17;3.20;;;;;;;;;;5105565;28;20268;-81
2023/06/27 03:09:16;;;;;;;4.10;3.70;;;;;;;;;;5094236;28;20201;-82
2023/06/27 03:11:43;;;;;;;5.67;3.37;;;;;;;;;;5106226;28;20252;-82
2023/06/27 03:14:11;;;;;;;5.03;2.60;;;;;;;;;;5075925;28;20281;-82
2023/06/27 03:16:38;;;;;;;5.73;2.67;;;;;;;;;;5075220;28;20211;-82
2023/06/27 03:19:05;;;;;;;3.23;2.93;;;;;;;;;;5077222;28;20264;-83
2023/06/27 03:21:32;;;;;;;3.10;2.80;;;;;;;;;;5078045;28;20746;-84
2023/06/27 03:24:01;;;;;;;4.03;3.67;;;;;;;;;;5103109;28;20594;-84
2023/06/27 03:26:29;;;;;;;4.30;3.10;;;;;;;;;;5071727;28;20745;-83
2023/06/27 03:28:56;;;;;;;8.77;3.20;;;;;;;;;;5108047;28;20743;-84
2023/06/27 03:31:23;;;;;;;5.03;3.20;;;;;;;;;;5105366;28;20193;-83
2023/06/27 03:33:52;;;;;;;5.13;3.13;;;;;;;;;;5091414;28;20231;-83
2023/06/27 03:36:19;;;;;;;4.83;3.30;;;;;;;;;;5111776;28;20219;-83
2023/06/27 03:38:47;;;;;;;4.47;3.17;;;;;;;;;;5111173;28;20204;-82
2023/06/27 03:41:16;;;;;;;5.43;3.40;;;;;;;;;;5084160;28;20670;-83
2023/06/27 03:43:43;;;;;;;7.30;3.87;;;;;;;;;;5095670;28;20204;-82
2023/06/27 03:46:12;;;;;;;3.53;3.23;;;;;;;;;;5092570;28;20622;-81
2023/06/27 03:48:39;;;;;;;4.50;3.30;;;;;;;;;;5091178;28;20192;-83
2023/06/27 03:51:06;;;;;;;4.67;3.43;;;;;;;;;;5090029;28;20218;-83
2023/06/27 03:53:32;;;;;;;5.33;4.67;;;;;;;;;;5101482;28;20230;-75
2023/06/27 03:56:00;;;;;;;5.97;3.73;;;;;;;;;;5096459;28;20200;-78
2023/06/27 03:58:29;;;;;;;4.97;3.50;;;;;;;;;;5101447;28;20196;-78
2023/06/27 04:00:55;;;;;;;4.23;3.83;;;;;;;;;;5111560;28;20207;-78
2023/06/27 04:03:22;;;;;;;8.23;3.70;;;;;;;;;;5111334;28;20257;-78
2023/06/27 04:05:49;;;;;;;3.90;3.00;;;;;;;;;;5098265;28;20203;-78
2023/06/27 04:08:16;;;;;;;4.70;3.00;;;;;;;;;;5110996;28;20707;-78
2023/06/27 04:10:42;;;;;;;5.60;3.40;;;;;;;;;;5110130;28;20199;-78
2023/06/27 04:13:09;;;;;;;4.27;3.80;;;;;;;;;;5111899;28;20288;-78
2023/06/27 04:15:39;;;;;;;6.33;4.03;;;;;;;;;;5099159;28;20210;-78
2023/06/27 04:18:06;;;;;;;3.93;3.63;;;;;;;;;;5111942;28;20677;-78
2023/06/27 04:20:33;;;;;;;4.37;3.97;;;;;;;;;;5105537;28;20200;-78
2023/06/27 04:23:00;;;;;;;5.97;3.60;;;;;;;;;;5091426;28;20212;-78
2023/06/27 04:25:31;;;;;;;3.27;2.97;;;;;;;;;;5095974;28;20195;-78
2023/06/27 04:27:57;;;;;;;3.50;3.27;;;;;;;;;;5099876;28;20698;-78
2023/06/27 04:30:24;;;;;;;4.47;3.37;;;;;;;;;;5097218;28;20195;-78
2023/06/27 04:32:53;;;;;;;5.50;3.20;;;;;;;;;;5099445;28;20287;-78
2023/06/27 04:35:20;;;;;;;4.43;3.13;;;;;;;;;;5091761;28;20224;-78
2023/06/27 04:37:47;;;;;;;4.23;2.90;;;;;;;;;;5104443;28;20681;-78
2023/06/27 04:40:15;;;;;;;5.07;3.37;;;;;;;;;;5104839;28;20204;-78
2023/06/27 04:42:42;;;;;;;4.80;3.13;;;;;;;;;;5105083;28;20234;-78
2023/06/27 04:45:09;;;;;;;3.40;3.10;;;;;;;;;;5092089;28;20583;-78
2023/06/27 04:47:36;;;;;;;3.40;3.13;;;;;;;;;;5105151;28;20256;-78
2023/06/27 04:50:05;;;;;;;4.93;3.17;;;;;;;;;;5091022;28;20651;-78
2023/06/27 04:52:32;;;;;;;6.60;3.80;;;;;;;;;;5092277;28;20253;-78
2023/06/27 04:54:59;;;;;;;5.33;2.63;;;;;;;;;;5103114;28;20223;-78
2023/06/27 04:57:26;;;;;;;3.17;2.70;;;;;;;;;;5104523;28;20204;-78
2023/06/27 04:59:53;;;;;;;2.80;2.60;;;;;;;;;;5091246;28;20200;-78
2023/06/27 05:02:19;;;;;;;3.33;3.10;;;;;;;;;;5106319;28;20257;-78
2023/06/27 05:04:46;;;;;;;2.97;2.73;;;;;;;;;;5111409;28;20638;-78
2023/06/27 05:07:14;;;;;;;3.83;2.70;;;;;;;;;;5097671;28;20204;-78
2023/06/27 05:09:41;;;;;;;5.00;3.30;;;;;;;;;;5111936;28;20223;-78
2023/06/27 05:12:09;;;;;;;5.53;3.37;;;;;;;;;;5097211;28;20261;-78
2023/06/27 05:14:35;;;;;;;3.63;3.33;;;;;;;;;;5101530;28;20253;-78
2023/06/27 05:17:02;;;;;;;4.90;3.03;;;;;;;;;;5107671;28;20199;-78
2023/06/27 05:19:29;;;;;;;3.97;3.53;;;;;;;;;;5110730;28;20203;-80
2023/06/27 05:21:56;;;;;;;3.63;3.33;;;;;;;;;;5097816;28;20210;-77
2023/06/27 05:24:24;;;;;;;5.47;3.20;;;;;;;;;;5100627;28;20200;-79
2023/06/27 05:26:51;;;;;;;6.03;3.23;;;;;;;;;;5093432;28;20208;-79
2023/06/27 05:29:17;;;;;;;3.40;3.10;;;;;;;;;;5101474;28;20253;-78
2023/06/27 05:31:44;;;;;;;5.87;3.77;;;;;;;;;;5093571;28;20205;-79
2023/06/27 05:34:12;;;;;;;6.33;3.73;;;;;;;;;;5110994;28;20232;-79
2023/06/27 05:36:39;;;;;;;5.77;3.43;;;;;;;;;;5108003;28;20759;-79
2023/06/27 05:39:06;;;;;;;3.67;3.37;;;;;;;;;;5090661;28;20204;-80
2023/06/27 05:41:34;;;;;;;4.93;3.60;;;;;;;;;;5107464;28;20622;-79
2023/06/27 05:44:01;;;;;;;4.50;3.70;;;;;;;;;;5110371;28;20219;-80
2023/06/27 05:46:28;;;;;;;3.53;3.23;;;;;;;;;;5111408;28;20215;-80
2023/06/27 05:48:54;;;;;;;4.73;3.43;;;;;;;;;;5099829;28;20204;-80
2023/06/27 05:51:22;;;;;;;3.60;3.30;;;;;;;;;;5104166;28;20196;-81
2023/06/27 05:53:48;;;;;;;3.67;2.90;;;;;;;;;;5102325;28;20231;-80
2023/06/27 05:56:15;;;;;;;6.07;3.53;;;;;;;;;;5110744;28;20202;-80
2023/06/27 05:58:43;;;;;;;4.43;3.40;;;;;;;;;;5098980;28;20204;-80
2023/06/27 06:01:12;;;;;;;3.27;2.97;;;;;;;;;;5109438;28;20203;-80
2023/06/27 06:03:38;;;;;;;4.10;3.70;;;;;;;;;;5111003;28;20207;-80
2023/06/27 06:06:05;;;;;;;3.87;3.43;;;;;;;;;;5106491;28;20196;-81
2023/06/27 06:08:32;;;;;;;3.83;3.53;;;;;;;;;;5106552;28;20617;-81
2023/06/27 06:10:58;;;;;;;3.80;3.43;;;;;;;;;;5108745;28;20667;-81
2023/06/27 06:13:25;;;;;;;4.00;3.60;;;;;;;;;;5106953;28;20589;-81
2023/06/27 06:15:53;;;;;;;4.47;3.70;;;;;;;;;;5114455;28;20207;-81
2023/06/27 06:18:20;;;;;;;6.00;3.90;;;;;;;;;;5101154;28;20591;-81
2023/06/27 06:20:47;;;;;;;7.00;4.07;;;;;;;;;;5108367;28;20628;-81
2023/06/27 06:23:14;;;;;;;8.60;4.47;;;;;;;;;;5093882;28;20200;-81
2023/06/27 06:25:40;;;;;;;4.60;3.40;;;;;;;;;;5094448;28;20200;-81
2023/06/27 06:28:07;;;;;;;4.07;3.77;;;;;;;;;;5107160;28;20669;-81
2023/06/27 06:30:34;;;;;;;4.20;3.80;;;;;;;;;;5100959;28;20248;-81
2023/06/27 06:33:02;;;;;;;6.40;4.10;;;;;;;;;;5100696;28;20206;-81
2023/06/27 06:35:29;;;;;;;5.17;4.00;;;;;;;;;;5094253;28;20236;-81
2023/06/27 06:37:56;;;;;;;5.57;4.53;;;;;;;;;;5107322;28;20196;-81
2023/06/27 06:40:24;;;;;;;3.83;3.53;;;;;;;;;;5093687;28;20254;-81
2023/06/27 06:42:51;;;;;;;4.13;3.73;;;;;;;;;;5094888;28;20340;-81
2023/06/27 06:45:18;;;;;;;5.90;3.43;;;;;;;;;;5106471;28;20200;-81
2023/06/27 06:47:44;;;;;;;3.93;3.53;;;;;;;;;;5093930;28;20204;-81
2023/06/27 06:50:14;;;;;;;6.83;3.57;;;;;;;;;;5094010;28;20204;-81
2023/06/27 06:52:41;;;;;;;3.77;3.43;;;;;;;;;;5107169;28;20203;-80
2023/06/27 06:55:08;;;;;;;4.00;3.07;;;;;;;;;;5093667;28;20239;-81
2023/06/27 06:57:35;;;;;;;4.07;3.57;;;;;;;;;;5106574;28;20723;-80
2023/06/27 07:00:03;;;;;;;3.03;2.73;;;;;;;;;;5103017;28;20203;-81
2023/06/27 07:02:30;;;;;;;3.97;3.40;;;;;;;;;;5110550;28;20209;-81
2023/06/27 07:04:57;;;;;;;3.73;3.20;;;;;;;;;;5103399;28;20219;-81
2023/06/27 07:07:25;;;;;;;6.83;3.70;;;;;;;;;;5099954;28;20276;-81
2023/06/27 07:09:52;;;;;;;4.30;3.60;;;;;;;;;;5113360;28;20645;-81
2023/06/27 07:12:19;;;;;;;3.20;2.93;;;;;;;;;;5096558;28;20207;-81
2023/06/27 07:14:45;;;;;;;6.03;3.70;;;;;;;;;;5103590;28;20227;-81
2023/06/27 07:17:12;;;;;;;14.03;3.30;;;;;;;;;;5112099;28;20200;-81
2023/06/27 07:19:42;;;;;;;3.67;3.37;;;;;;;;;;5113901;28;20203;-81
2023/06/27 07:22:09;;;;;;;3.27;3.07;;;;;;;;;;5113165;28;20695;-81
2023/06/27 07:24:37;;;;;;;3.90;3.50;;;;;;;;;;5102225;28;20210;-80
2023/06/27 07:27:04;;;;;;;3.10;2.90;;;;;;;;;;5106417;28;20589;-81
2023/06/27 07:29:31;;;;;;;3.30;3.00;;;;;;;;;;5104196;28;20210;-80
2023/06/27 07:31:57;;;;;;;3.90;3.60;;;;;;;;;;5113058;28;20282;-80
2023/06/27 07:34:24;;;;;;;3.07;2.87;;;;;;;;;;5112903;28;20223;-80
2023/06/27 07:36:51;;;;;;;3.03;2.73;;;;;;;;;;5108241;28;20208;-80
2023/06/27 07:39:18;;;;;;;3.73;3.43;;;;;;;;;;5104430;28;20200;-80
2023/06/27 07:41:46;;;;;;;3.70;2.93;;;;;;;;;;5112353;28;20256;-80
2023/06/27 07:44:13;;;;;;;3.37;3.10;;;;;;;;;;5101005;28;20641;-80
2023/06/27 07:46:39;;;;;;;3.13;2.90;;;;;;;;;;5097717;28;20697;-80
2023/06/27 07:49:06;;;;;;;3.50;3.20;;;;;;;;;;5100315;28;20230;-80
2023/06/27 07:51:33;;;;;;;3.77;3.47;;;;;;;;;;5105862;28;20197;-80
2023/06/27 07:54:02;;;;;;;3.53;3.22;;;;;;;;;;5105110;28;20203;-80
2023/06/27 07:56:29;;;;;;;4.63;3.80;;;;;;;;;;5106151;28;20257;-80
2023/06/27 07:59:00;;;;;;;3.50;3.30;;;;;;;;;;5092304;28;20336;-80
2023/06/27 08:01:27;;;;;;;3.10;2.80;;;;;;;;;;5099959;28;20199;-80
2023/06/27 08:03:53;;;;;;;3.93;3.63;;;;;;;;;;5111865;28;20199;-80
2023/06/27 08:06:20;;;;;;;3.43;3.13;;;;;;;;;;5105590;28;20199;-79
2023/06/27 08:08:47;;;;;;;5.65;3.17;;;;;;;;;;5106007;28;20203;-80
2023/06/27 08:11:14;;;;;;;3.78;3.35;;;;;;;;;;5099715;28;20192;-80
2023/06/27 08:13:41;;;;;;;3.65;3.35;;;;;;;;;;5098380;28;20295;-80
2023/06/27 08:16:09;;;;;;;4.35;3.95;;;;;;;;;;5104312;28;20658;-80
2023/06/27 08:18:36;;;;;;;3.33;2.97;;;;;;;;;;5105458;28;20199;-80
2023/06/27 08:21:04;;;;;;;3.75;3.45;;;;;;;;;;5100494;28;20295;-80
2023/06/27 08:23:31;;;;;;;3.40;3.10;;;;;;;;;;5110203;28;20208;-80
2023/06/27 08:25:57;;;;;;;8.95;3.75;;;;;;;;;;5100687;28;20641;-80
2023/06/27 08:28:24;;;;;;;3.33;3.03;;;;;;;;;;5109217;28;20206;-80
2023/06/27 08:30:51;;;;;;;3.95;3.33;;;;;;;;;;5100684;28;20642;-80
2023/06/27 08:33:19;;;;;;;8.63;3.60;;;;;;;;;;5097982;28;20200;-80
2023/06/27 08:35:46;;;;;;;5.40;3.42;;;;;;;;;;5102546;28;20695;-80
2023/06/27 08:38:13;;;;;;;4.60;3.20;;;;;;;;;;5104968;28;20259;-79
2023/06/27 08:40:42;;;;;;;3.28;3.03;;;;;;;;;;5101206;28;20196;-79
2023/06/27 08:43:11;;;;;;;3.85;3.55;;;;;;;;;;5111252;28;20192;-78
2023/06/27 08:45:38;;;;;;;3.38;3.08;;;;;;;;;;5112042;28;20200;-79
2023/06/27 08:48:07;;;;;;;3.58;3.28;;;;;;;;;;5107777;28;20196;-79
2023/06/27 08:50:36;;;;;;;6.80;4.00;;;;;;;;;;5090995;28;20215;-80
2023/06/27 08:53:06;;;;;;;7.90;3.63;;;;;;;;;;5091382;28;20200;-80
2023/06/27 08:55:38;;;;;;;3.22;2.92;;;;;;;;;;5103892;28;20713;-80
2023/06/27 08:58:06;;;;;;;3.40;3.20;;;;;;;;;;5091077;28;20658;-80
2023/06/27 09:00:34;;;;;;;4.72;3.40;;;;;;;;;;5091114;28;20208;-80
2023/06/27 09:03:01;;;;;;;5.10;2.85;;;;;;;;;;5111199;28;20206;-80
2023/06/27 09:05:28;;;;;;;4.20;3.70;;;;;;;;;;5111173;28;20215;-80
2023/06/27 09:07:58;;;;;;;3.38;3.08;;;;;;;;;;5111793;28;20640;-80
2023/06/27 09:10:25;;;;;;;4.30;3.35;;;;;;;;;;5097912;28;20200;-80
2023/06/27 09:12:54;;;;;;;4.03;3.10;;;;;;;;;;5111578;28;20203;-80
2023/06/27 09:15:21;;;;;;;6.70;3.50;;;;;;;;;;5097824;28;20641;-80
2023/06/27 09:17:48;;;;;;;5.00;3.72;;;;;;;;;;5102999;28;20272;-80
2023/06/27 09:20:17;;;;;;;12.07;3.55;;;;;;;;;;5090530;28;20208;-80
2023/06/27 09:22:44;;;;;;;3.53;3.22;;;;;;;;;;5100393;28;20204;-80
2023/06/27 09:25:14;;;;;;;6.65;3.72;;;;;;;;;;5097309;28;20200;-80
2023/06/27 09:27:41;;;;;;;3.53;3.22;;;;;;;;;;5111122;28;20283;-80
2023/06/27 09:30:09;;;;;;;3.58;3.30;;;;;;;;;;5097466;28;20196;-80
2023/06/27 09:32:36;;;;;;;4.00;3.60;;;;;;;;;;5111246;28;20272;-80
2023/06/27 09:35:03;;;;;;;3.63;3.15;;;;;;;;;;5097536;28;20254;-81
2023/06/27 09:37:31;;;;;;;3.85;3.47;;;;;;;;;;5100636;28;20235;-80
2023/06/27 09:39:58;;;;;;;3.80;3.30;;;;;;;;;;5104352;28;20283;-80
2023/06/27 09:42:30;;;;;;;4.40;3.78;;;;;;;;;;5105082;28;20191;-80
2023/06/27 09:45:13;;;;;;;3.40;3.08;;;;;;;;;;5110501;28;20197;-80
2023/06/27 09:47:42;;;;;;;3.35;3.05;;;;;;;;;;5107904;28;20614;-80
2023/06/27 09:50:09;;;;;;;3.42;3.13;;;;;;;;;;5102542;28;20196;-80
2023/06/27 09:52:36;;;;;;;3.65;3.35;;;;;;;;;;5115044;28;20199;-80
2023/06/27 09:55:03;;;;;;;5.15;3.78;;;;;;;;;;5114866;28;20219;-80
2023/06/27 09:57:32;;;;;;;5.13;3.47;;;;;;;;;;5113696;28;20207;-80
2023/06/27 09:59:58;;;;;;;3.58;3.17;;;;;;;;;;5103380;28;20207;-80
2023/06/27 10:02:30;;;;;;;3.60;2.83;;;;;;;;;;5114109;28;20215;-80
2023/06/27 10:04:57;;;;;;;3.38;3.08;;;;;;;;;;5115086;28;20278;-80
2023/06/27 10:07:24;;;;;;;3.60;3.30;;;;;;;;;;5115081;28;20241;-80
2023/06/27 10:09:52;;;;;;;3.92;2.88;;;;;;;;;;5115171;28;20203;-80
2023/06/27 10:12:21;;;;;;;3.42;3.13;;;;;;;;;;5114061;28;20211;-80
2023/06/27 10:14:49;;;;;;;3.58;3.10;;;;;;;;;;5104347;28;20702;-80
2023/06/27 10:17:18;;;;;;;3.13;2.92;;;;;;;;;;5098019;28;20192;-80
2023/06/27 10:19:45;;;;;;;3.33;3.03;;;;;;;;;;5114973;28;20203;-80
2023/06/27 10:22:15;;;;;;;6.20;3.55;;;;;;;;;;5113875;28;20203;-80
2023/06/27 10:24:42;;;;;;;24.60;3.80;;;;;;;;;;5102493;28;20200;-80
2023/06/27 10:27:13;;;;;;;4.75;3.05;;;;;;;;;;5094291;28;20200;-79
2023/06/27 10:29:40;;;;;;;5.13;3.30;;;;;;;;;;5094666;28;20698;-80
2023/06/27 10:32:10;;;;;;;3.70;3.38;;;;;;;;;;5113070;28;20200;-80
2023/06/27 10:34:40;;;;;;;4.10;3.40;;;;;;;;;;5101055;28;20695;-79
2023/06/27 10:37:06;;;;;;;3.38;3.10;;;;;;;;;;5100423;28;20227;-80
2023/06/27 10:39:36;;;;;;;3.20;2.90;;;;;;;;;;5100326;28;20230;-79
2023/06/27 10:42:04;;;;;;;8.18;3.30;;;;;;;;;;5093711;28;20591;-79
2023/06/27 10:44:31;;;;;;;2.83;2.63;;;;;;;;;;5093650;28;20698;-79
2023/06/27 10:47:29;;;;;;;4.07;2.97;;;;;;;;;;5093597;28;20196;-79
2023/06/27 10:50:02;;;;;;;4.78;3.05;;;;;;;;;;5112799;28;20589;-80
2023/06/27 10:52:29;;;;;;;3.78;3.45;;;;;;;;;;5100684;28;20295;-79
2023/06/27 10:55:18;;;;;;;3.10;2.80;;;;;;;;;;5106804;28;20684;-79
2023/06/27 10:57:47;;;;;;;4.35;3.10;;;;;;;;;;5096283;28;20300;-79
2023/06/27 11:00:14;;;;;;;3.40;3.10;;;;;;;;;;5103990;28;20675;-79
2023/06/27 11:02:43;;;;;;;4.43;3.60;;;;;;;;;;5110319;28;20227;-79
2023/06/27 11:05:17;;;;;;;3.33;3.03;;;;;;;;;;5113863;28;20290;-80
2023/06/27 11:07:52;;;;;;;4.60;3.58;;;;;;;;;;5100061;28;20311;-79
2023/06/27 11:10:23;;;;;;;4.15;3.00;;;;;;;;;;5113281;28;20276;-79
2023/06/27 11:12:50;;;;;;;3.95;3.60;;;;;;;;;;5106355;28;20207;-79
2023/06/27 11:15:18;;;;;;;3.92;3.63;;;;;;;;;;5106559;28;20610;-79
2023/06/27 11:17:47;;;;;;;3.15;2.85;;;;;;;;;;5100924;28;20207;-79
2023/06/27 11:20:14;;;;;;;3.28;2.88;;;;;;;;;;5113787;28;20211;-79
2023/06/27 11:22:41;;;;;;;4.10;3.80;;;;;;;;;;5105071;28;20212;-79
2023/06/27 11:25:18;;;;;;;3.10;2.90;;;;;;;;;;5092647;28;20560;-79
2023/06/27 11:27:45;;;;;;;3.17;2.97;;;;;;;;;;5103426;28;20207;-79
2023/06/27 11:30:12;;;;;;;3.47;2.70;;;;;;;;;;5096435;28;20192;-79
2023/06/27 11:32:38;;;;;;;3.17;2.67;;;;;;;;;;5103176;28;20203;-79
2023/06/27 11:35:09;;;;;;;2.95;2.75;;;;;;;;;;5109181;28;20235;-79
2023/06/27 11:37:37;;;;;;;3.38;3.08;;;;;;;;;;5103861;28;20233;-79
2023/06/27 11:40:08;;;;;;;3.20;3.00;;;;;;;;;;5108151;28;20196;-80
2023/06/27 11:42:35;;;;;;;4.80;3.50;;;;;;;;;;5104930;28;20692;-79
2023/06/27 11:45:05;;;;;;;3.10;2.88;;;;;;;;;;5099586;28;20205;-79
2023/06/27 11:47:31;;;;;;;3.20;2.90;;;;;;;;;;5099669;28;20590;-78
2023/06/27 11:50:11;;;;;;;3.20;2.90;;;;;;;;;;5112736;28;20196;-79
2023/06/27 11:52:41;;;;;;;3.00;2.70;;;;;;;;;;5112382;28;20210;-79
2023/06/27 11:55:08;;;;;;;3.60;3.20;;;;;;;;;;5103941;28;20211;-79
2023/06/27 11:57:43;;;;;;;2.92;2.72;;;;;;;;;;5092186;28;20219;-79
2023/06/27 12:00:16;;;;;;;3.88;3.58;;;;;;;;;;5092166;28;20278;-78
2023/06/27 12:02:47;;;;;;;3.70;3.10;;;;;;;;;;5110238;28;20200;-78
2023/06/27 12:05:15;;;;;;;3.65;3.35;;;;;;;;;;5100367;28;20200;-78
2023/06/27 12:07:42;;;;;;;3.22;2.92;;;;;;;;;;5097541;28;20196;-78
2023/06/27 12:10:10;;;;;;;3.40;3.10;;;;;;;;;;5112701;28;20203;-78
2023/06/27 12:12:38;;;;;;;3.33;3.00;;;;;;;;;;5112505;28;20204;-78
2023/06/27 12:15:13;;;;;;;2.80;2.60;;;;;;;;;;5098517;28;20737;-80
2023/06/27 12:17:40;;;;;;;3.08;2.80;;;;;;;;;;5099826;28;20205;-78
2023/06/27 12:20:07;;;;;;;3.25;2.95;;;;;;;;;;5112150;28;20729;-78
2023/06/27 12:22:36;;;;;;;3.00;2.80;;;;;;;;;;5112156;28;20637;-78
2023/06/27 12:25:05;;;;;;;3.40;3.10;;;;;;;;;;5098656;28;20200;-78
2023/06/27 12:27:35;;;;;;;3.38;3.08;;;;;;;;;;5103530;28;20198;-78
2023/06/27 12:30:05;;;;;;;4.95;3.53;;;;;;;;;;5107910;28;20272;-78
2023/06/27 12:32:32;;;;;;;3.33;3.13;;;;;;;;;;5112288;28;20200;-78
2023/06/27 12:34:59;;;;;;;3.85;3.10;;;;;;;;;;5095367;28;20649;-78
2023/06/27 12:37:27;;;;;;;2.97;2.78;;;;;;;;;;5091202;28;20228;-77
2023/06/27 12:39:55;;;;;;;3.30;3.00;;;;;;;;;;5108460;28;20195;-78
2023/06/27 12:42:22;;;;;;;4.18;3.47;;;;;;;;;;5111970;28;20212;-78
2023/06/27 12:44:49;;;;;;;3.45;3.13;;;;;;;;;;5112108;28;20196;-78
2023/06/27 12:47:16;;;;;;;3.13;2.92;;;;;;;;;;5101035;28;20212;-78
2023/06/27 12:49:43;;;;;;;5.75;3.47;;;;;;;;;;5095859;28;20690;-78
2023/06/27 12:52:10;;;;;;;3.58;3.28;;;;;;;;;;5100249;28;20208;-78
2023/06/27 12:54:39;;;;;;;3.38;3.10;;;;;;;;;;5109734;28;20199;-78
2023/06/27 12:57:07;;;;;;;3.22;3.00;;;;;;;;;;5099896;28;20608;-78
2023/06/27 12:59:34;;;;;;;3.10;2.90;;;;;;;;;;5110313;28;20215;-78
2023/06/27 13:02:01;;;;;;;3.35;3.08;;;;;;;;;;5111632;28;20225;-78
2023/06/27 13:04:29;;;;;;;3.47;3.17;;;;;;;;;;5111777;28;20200;-77
2023/06/27 13:06:56;;;;;;;4.07;2.55;;;;;;;;;;5098454;28;20239;-78
2023/06/27 13:09:23;;;;;;;3.78;3.28;;;;;;;;;;5097536;28;20218;-78
2023/06/27 13:11:50;;;;;;;3.60;3.40;;;;;;;;;;5098660;28;20222;-77
2023/06/27 13:14:19;;;;;;;3.00;2.80;;;;;;;;;;5097392;28;20282;-78
2023/06/27 13:16:45;;;;;;;3.20;2.90;;;;;;;;;;5105045;28;20616;-78
2023/06/27 13:19:13;;;;;;;3.88;3.20;;;;;;;;;;5110683;28;20192;-78
2023/06/27 13:21:40;;;;;;;3.20;3.00;;;;;;;;;;5110961;28;20196;-78
2023/06/27 13:24:07;;;;;;;4.03;3.28;;;;;;;;;;5091515;28;20633;-79
2023/06/27 13:26:34;;;;;;;3.28;2.97;;;;;;;;;;5105065;28;20199;-78
2023/06/27 13:29:01;;;;;;;3.85;2.83;;;;;;;;;;5090631;28;20560;-78
2023/06/27 13:31:29;;;;;;;3.33;3.05;;;;;;;;;;5104700;28;20205;-78
2023/06/27 13:33:56;;;;;;;2.95;2.75;;;;;;;;;;5111152;28;20211;-77
2023/06/27 13:36:23;;;;;;;3.20;3.00;;;;;;;;;;5110938;28;20243;-78
2023/06/27 13:38:49;;;;;;;10.98;3.30;;;;;;;;;;5102606;28;20675;-77
2023/06/27 13:41:16;;;;;;;3.92;2.78;;;;;;;;;;5105431;28;20211;-78
2023/06/27 13:43:43;;;;;;;3.97;2.83;;;;;;;;;;5110809;28;20642;-77
2023/06/27 13:46:12;;;;;;;4.68;3.20;;;;;;;;;;5096903;28;20572;-78
2023/06/27 13:48:41;;;;;;;3.33;3.03;;;;;;;;;;5111017;28;20211;-78
2023/06/27 13:51:07;;;;;;;8.38;3.22;;;;;;;;;;5110885;28;20207;-78
2023/06/27 13:53:34;;;;;;;4.05;3.28;;;;;;;;;;5111037;28;20272;-77
2023/06/27 13:56:03;;;;;;;4.00;3.50;;;;;;;;;;5094709;28;20224;-77
2023/06/27 13:58:30;;;;;;;3.70;3.13;;;;;;;;;;5090501;28;20204;-77
2023/06/27 14:00:59;;;;;;;3.13;2.83;;;;;;;;;;5104202;28;20239;-77
2023/06/27 14:03:26;;;;;;;3.60;3.30;;;;;;;;;;5100392;28;20211;-77
2023/06/27 14:05:54;;;;;;;3.40;3.08;;;;;;;;;;5093687;28;20223;-78
2023/06/27 14:08:21;;;;;;;3.72;2.75;;;;;;;;;;5102471;28;20283;-77
2023/06/27 14:10:49;;;;;;;5.15;3.38;;;;;;;;;;5104231;28;20678;-78
2023/06/27 14:13:16;;;;;;;3.70;3.40;;;;;;;;;;5110944;28;20196;-78
2023/06/27 14:15:44;;;;;;;3.60;3.30;;;;;;;;;;5095902;28;20207;-77
2023/06/27 14:18:11;;;;;;;4.40;3.55;;;;;;;;;;5090597;28;20219;-78
2023/06/27 14:20:38;;;;;;;4.30;3.92;;;;;;;;;;5090738;28;20204;-78
2023/06/27 14:23:06;;;;;;;3.88;3.45;;;;;;;;;;5109176;28;20260;-77
2023/06/27 14:25:33;;;;;;;3.53;3.03;;;;;;;;;;5110447;28;20203;-77
2023/06/27 14:28:00;;;;;;;4.38;3.50;;;;;;;;;;5110785;28;20196;-78
2023/06/27 14:30:27;;;;;;;3.33;2.92;;;;;;;;;;5112245;28;20638;-77
2023/06/27 14:32:56;;;;;;;3.97;3.67;;;;;;;;;;5112454;28;20195;-77
2023/06/27 14:35:23;;;;;;;7.00;4.10;;;;;;;;;;5106225;28;20300;-77
2023/06/27 14:37:50;;;;;;;5.30;3.60;;;;;;;;;;5106024;28;20649;-77
2023/06/27 14:40:18;;;;;;;3.42;3.22;;;;;;;;;;5094388;28;20236;-78
2023/06/27 14:42:45;;;;;;;3.85;3.40;;;;;;;;;;5093682;28;20207;-77
2023/06/27 14:45:12;;;;;;;3.65;3.35;;;;;;;;;;5096377;28;20207;-77
2023/06/27 14:47:38;;;;;;;3.70;3.40;;;;;;;;;;5113564;28;20195;-78